createdAt,value
2023-02-24T00:00:02.866Z,85
2023-02-24T00:20:02.527Z,86
2023-02-24T00:40:02.595Z,86
2023-02-24T01:00:02.945Z,86
2023-02-24T01:20:02.335Z,86
2023-02-24T01:40:02.606Z,85
2023-02-24T02:00:02.928Z,84
2023-02-24T02:20:02.358Z,81
2023-02-24T02:40:02.692Z,78
2023-02-24T03:00:02.984Z,75
2023-02-24T03:20:02.366Z,73
2023-02-24T03:40:02.799Z,72
2023-02-24T04:00:03.096Z,71
2023-02-24T04:20:02.784Z,70
2023-02-24T04:40:03.208Z,70
2023-02-24T05:00:02.535Z,70
2023-02-24T05:20:03.110Z,70
2023-02-24T05:40:02.385Z,70
2023-02-24T06:00:02.806Z,70
2023-02-24T06:20:02.996Z,70
2023-02-24T06:40:02.406Z,70
2023-02-24T07:00:02.746Z,70
2023-02-24T07:20:03.096Z,70
2023-02-24T07:40:02.586Z,69
2023-02-24T08:00:02.967Z,67
2023-02-24T08:20:02.599Z,65
2023-02-24T08:40:02.859Z,64
2023-02-24T09:00:07.440Z,63
2023-02-24T09:20:02.745Z,63
2023-02-24T09:40:03.048Z,62
2023-02-24T10:00:03.839Z,62
2023-02-24T10:20:02.442Z,62
2023-02-24T10:40:02.930Z,62
2023-02-24T11:00:02.656Z,61
2023-02-24T11:20:02.763Z,60
2023-02-24T11:40:03.199Z,62
2023-02-24T12:00:02.494Z,67
2023-02-24T12:20:03.069Z,70
2023-02-24T12:40:02.859Z,73
2023-02-24T13:00:03.149Z,74
2023-02-24T13:20:02.356Z,75
2023-02-24T13:40:02.654Z,76
2023-02-24T14:00:03.278Z,76
2023-02-24T14:20:02.866Z,77
2023-02-24T14:40:03.260Z,78
2023-02-24T15:00:02.808Z,79
2023-02-24T15:20:02.461Z,80
2023-02-24T15:40:02.984Z,80
2023-02-24T16:00:02.697Z,81
2023-02-24T16:20:03.129Z,81
2023-02-24T16:40:03.131Z,81
2023-02-24T17:00:02.800Z,82
2023-02-24T17:20:02.792Z,82
2023-02-24T17:40:06.591Z,83
2023-02-24T18:00:03.057Z,83
2023-02-24T18:20:02.637Z,83
2023-02-24T18:40:04.455Z,84
2023-02-24T19:00:03.010Z,84
2023-02-24T19:20:02.509Z,84
2023-02-24T19:40:02.945Z,84
2023-02-24T20:00:03.238Z,84
2023-02-24T20:20:03.178Z,84
2023-02-24T20:40:03.020Z,85
2023-02-24T21:00:04.273Z,85
2023-02-24T21:20:02.733Z,85
2023-02-24T21:40:03.121Z,86
2023-02-24T22:00:03.404Z,86
2023-02-24T22:20:02.833Z,86
2023-02-24T22:40:03.156Z,87
2023-02-24T23:00:03.469Z,87
2023-02-24T23:20:03.188Z,87
2023-02-24T23:40:02.501Z,87
